createdAt,value
2018-03-16T09:13:16.183Z,2420
2018-03-16T09:14:00.945Z,2172
2018-03-16T09:14:45.680Z,2336
2018-03-16T09:15:30.452Z,2308
2018-03-16T09:16:15.230Z,2596
2018-03-16T09:16:59.943Z,2408
2018-03-16T09:17:44.681Z,2540
2018-03-16T09:18:29.394Z,2700
2018-03-16T09:19:14.082Z,2372
2018-03-16T09:19:58.798Z,2396
2018-03-16T09:20:43.535Z,2544
2018-03-16T09:21:28.294Z,2584
2018-03-16T09:22:13.055Z,2912
2018-03-16T09:22:57.773Z,3168
2018-03-16T09:23:42.511Z,3248
2018-03-16T09:24:27.276Z,3232
2018-03-16T09:25:12.062Z,3284
2018-03-16T09:25:56.772Z,3504
2018-03-16T09:26:41.482Z,3340
2018-03-16T09:27:26.205Z,3092
2018-03-16T09:28:10.939Z,3216
2018-03-16T09:28:55.667Z,3196
2018-03-16T09:29:40.481Z,3324
2018-03-16T09:30:25.217Z,3260
2018-03-16T09:31:09.989Z,3328
2018-03-16T09:31:54.781Z,3032
2018-03-16T09:32:39.487Z,3152
2018-03-16T09:33:24.231Z,3416
2018-03-16T09:34:08.988Z,2984
2018-03-16T09:34:53.776Z,3112
2018-03-16T09:35:38.493Z,3272
2018-03-16T09:36:23.233Z,3644
2018-03-16T09:37:07.959Z,3532
2018-03-16T09:37:52.704Z,3344
2018-03-16T09:38:37.444Z,3520
2018-03-16T09:39:22.166Z,3684
2018-03-16T09:40:07.116Z,3304
2018-03-16T09:40:51.857Z,3136
2018-03-16T09:41:36.574Z,3428
2018-03-16T09:42:21.360Z,3688
2018-03-16T09:43:06.232Z,3592
2018-03-16T09:43:50.837Z,3488
2018-03-16T09:44:35.555Z,3416
2018-03-16T09:45:20.350Z,3060
2018-03-16T09:46:05.114Z,3140
2018-03-16T09:46:49.831Z,2936
2018-03-16T09:47:34.562Z,3228
2018-03-16T09:48:19.277Z,2992
2018-03-16T09:49:04.035Z,3316
2018-03-16T09:49:48.788Z,3068
2018-03-16T09:50:33.542Z,2856
2018-03-16T09:51:18.255Z,2648
2018-03-16T09:52:02.972Z,2532
2018-03-16T09:52:47.737Z,2640
2018-03-16T09:53:32.640Z,2784
2018-03-16T09:54:17.355Z,2584
2018-03-16T09:55:02.097Z,2544
2018-03-16T09:55:46.812Z,2592
2018-03-16T09:56:31.867Z,2812
2018-03-16T09:57:16.610Z,2940
2018-03-16T09:58:01.321Z,2944
2018-03-16T09:58:46.034Z,2936
2018-03-16T09:59:30.775Z,2888
2018-03-16T10:00:15.785Z,2924
2018-03-16T10:01:00.655Z,3028
2018-03-16T10:01:45.444Z,2752
2018-03-16T10:02:30.154Z,2888
2018-03-16T10:03:14.898Z,3092
2018-03-16T10:03:59.655Z,3160
2018-03-16T10:04:44.459Z,3152
2018-03-16T10:05:29.151Z,3256
2018-03-16T10:06:13.872Z,3412
2018-03-16T10:06:58.618Z,3188
2018-03-16T10:07:43.357Z,3076
2018-03-16T10:08:28.066Z,3068
2018-03-16T10:09:12.814Z,3192
2018-03-16T10:09:57.566Z,3260
2018-03-16T10:10:42.302Z,3372
2018-03-16T10:11:27.057Z,3216
2018-03-16T10:12:11.888Z,3356
2018-03-16T10:12:56.709Z,3272
2018-03-16T10:13:41.551Z,3092
2018-03-16T10:14:26.403Z,3000
2018-03-16T10:15:11.169Z,3020
2018-03-16T10:15:55.947Z,2884
2018-03-16T10:16:40.712Z,2680
2018-03-16T10:17:25.587Z,2592
2018-03-16T10:18:10.394Z,2660
2018-03-16T10:18:55.198Z,2524
2018-03-16T10:19:39.992Z,2396
2018-03-16T10:20:24.813Z,2544
2018-03-16T10:21:09.695Z,2508
2018-03-16T10:21:54.488Z,2388
2018-03-16T10:22:39.243Z,2308
2018-03-16T10:23:24.089Z,2396
2018-03-16T10:24:09.220Z,2292
2018-03-16T10:24:54.099Z,2188
2018-03-16T10:25:38.980Z,2312
2018-03-16T10:26:23.763Z,2444
2018-03-16T10:27:08.591Z,2328
2018-03-16T10:27:53.426Z,2140
2018-03-16T10:28:38.245Z,2232
2018-03-16T10:29:23.018Z,2236
2018-03-16T10:30:07.817Z,2104
2018-03-16T10:30:52.599Z,2256
2018-03-16T10:31:37.545Z,2216
2018-03-16T10:32:22.360Z,2224
2018-03-16T10:33:07.354Z,2352
2018-03-16T10:33:52.211Z,2364
2018-03-16T10:34:37.010Z,2288
2018-03-16T10:35:21.774Z,2316
2018-03-16T10:36:06.853Z,2244
2018-03-16T10:36:51.587Z,2120
2018-03-16T10:37:36.386Z,2068
2018-03-16T10:38:21.212Z,2080
2018-03-16T10:39:06.023Z,2084
2018-03-16T10:39:50.871Z,2348
2018-03-16T10:40:35.644Z,2268
2018-03-16T10:41:20.423Z,2308
2018-03-16T10:42:05.215Z,2180
2018-03-16T10:42:50.058Z,2380
2018-03-16T10:43:34.860Z,2168
2018-03-16T10:44:19.597Z,2112
2018-03-16T10:45:04.312Z,2088
2018-03-16T10:45:49.019Z,2292
2018-03-16T10:46:33.806Z,2364
2018-03-16T10:47:18.634Z,2224
2018-03-16T10:48:03.333Z,2072
2018-03-16T10:48:48.081Z,2044
2018-03-16T10:49:32.785Z,2192
2018-03-16T10:50:17.527Z,2184
2018-03-16T10:51:02.267Z,2332
2018-03-16T10:51:47.023Z,2348
2018-03-16T10:52:31.742Z,2428
2018-03-16T10:53:16.484Z,2332
2018-03-16T10:54:01.220Z,2264
2018-03-16T10:54:45.937Z,2496
2018-03-16T10:55:30.700Z,2420
2018-03-16T10:56:15.410Z,2436
2018-03-16T10:57:00.171Z,2360
2018-03-16T10:57:44.858Z,2264
2018-03-16T10:58:29.621Z,2448
2018-03-16T10:59:14.362Z,2376
2018-03-16T10:59:59.102Z,2436
2018-03-16T11:00:43.900Z,2456
2018-03-16T11:01:28.637Z,2308
2018-03-16T11:02:13.387Z,2504
2018-03-16T11:02:58.115Z,2212
2018-03-16T11:03:42.858Z,2428
2018-03-16T11:04:27.564Z,2536
2018-03-16T11:05:12.360Z,2528
2018-03-16T11:05:57.388Z,2488
2018-03-16T11:06:42.125Z,2300
2018-03-16T11:07:26.840Z,2248
2018-03-16T11:08:11.584Z,2464
2018-03-16T11:08:56.415Z,2424
2018-03-16T11:09:41.156Z,2300
2018-03-16T11:10:25.870Z,2224
2018-03-16T11:11:10.615Z,2304
2018-03-16T11:11:55.346Z,2308
2018-03-16T11:12:40.259Z,2300
2018-03-16T11:13:25.023Z,2376
2018-03-16T11:14:09.757Z,2256
2018-03-16T11:14:54.472Z,2168
2018-03-16T11:15:39.180Z,2352
2018-03-16T11:16:23.889Z,2248
2018-03-16T11:17:08.605Z,2376
2018-03-16T11:17:53.347Z,2396
2018-03-16T11:18:38.054Z,2616
2018-03-16T11:19:22.768Z,2484
2018-03-16T11:20:07.521Z,2460
2018-03-16T11:20:52.236Z,2628
2018-03-16T11:21:36.978Z,2792
2018-03-16T11:22:21.694Z,2808
2018-03-16T11:23:06.418Z,2760
2018-03-16T11:23:51.266Z,2684
2018-03-16T11:24:35.979Z,2604
2018-03-16T11:25:20.715Z,2812
2018-03-16T11:26:05.429Z,2672
2018-03-16T11:26:50.142Z,2752
2018-03-16T11:27:34.852Z,2624
2018-03-16T11:28:19.592Z,2944
2018-03-16T11:29:04.310Z,2968
2018-03-16T11:29:49.021Z,2972
2018-03-16T11:30:33.729Z,2996
2018-03-16T11:31:18.427Z,2976
2018-03-16T11:32:03.187Z,2768
2018-03-16T11:32:47.965Z,2824
2018-03-16T11:33:32.706Z,3044
2018-03-16T11:34:17.447Z,3048
2018-03-16T11:35:02.161Z,2808
2018-03-16T11:35:46.867Z,2832
2018-03-16T11:36:31.579Z,2972
2018-03-16T11:37:16.293Z,3188
2018-03-16T11:38:01.002Z,3124
2018-03-16T11:38:45.713Z,3128
2018-03-16T11:39:30.428Z,3248
2018-03-16T11:40:15.173Z,2940
2018-03-16T11:40:59.884Z,2912
2018-03-16T11:41:44.623Z,3176
2018-03-16T11:42:29.366Z,3072
2018-03-16T11:43:14.113Z,3312
2018-03-16T11:43:58.867Z,3180
2018-03-16T11:44:43.558Z,3416
2018-03-16T11:45:28.301Z,3192
2018-03-16T11:46:12.987Z,3164
2018-03-16T11:46:57.705Z,3400
2018-03-16T11:47:42.419Z,3472
2018-03-16T11:48:27.158Z,3340
2018-03-16T11:49:11.888Z,3304
2018-03-16T11:49:56.562Z,3272
2018-03-16T11:50:41.276Z,3216
2018-03-16T11:51:26.018Z,3340
2018-03-16T11:52:10.731Z,3512
2018-03-16T11:52:55.442Z,3624
2018-03-16T11:53:40.183Z,3652
2018-03-16T11:54:24.895Z,3540
2018-03-16T11:55:09.617Z,3636
2018-03-16T11:55:54.344Z,3572
2018-03-16T11:56:39.076Z,3544
2018-03-16T11:57:23.796Z,3500
2018-03-16T11:58:08.506Z,3692
2018-03-16T11:58:53.215Z,3348
2018-03-16T11:59:37.973Z,3396
2018-03-16T12:00:22.660Z,3580
2018-03-16T12:01:07.371Z,3464
2018-03-16T12:01:52.100Z,3492
2018-03-16T12:02:36.823Z,3440
2018-03-16T12:03:21.559Z,3492
2018-03-16T12:04:06.270Z,3320
2018-03-16T12:04:50.988Z,3352
2018-03-16T12:05:35.725Z,3760
2018-03-16T12:06:20.442Z,3604
2018-03-16T12:07:05.146Z,3584
2018-03-16T12:07:49.864Z,3508
2018-03-16T12:08:34.574Z,3432
2018-03-16T12:09:19.360Z,3592
2018-03-16T12:10:04.077Z,3780
2018-03-16T12:10:48.775Z,3544
2018-03-16T12:11:33.510Z,3824
2018-03-16T12:12:18.217Z,3800
2018-03-16T12:13:02.932Z,3876
2018-03-16T12:13:47.638Z,3768
2018-03-16T12:14:32.393Z,3444
2018-03-16T12:15:17.180Z,3664
2018-03-16T12:16:01.899Z,3492
2018-03-16T12:16:46.639Z,3280
2018-03-16T12:17:31.380Z,3680
2018-03-16T12:18:16.278Z,3560
2018-03-16T12:19:01.044Z,3700
2018-03-16T12:19:45.789Z,3864
2018-03-16T12:20:30.533Z,3616
2018-03-16T12:21:15.243Z,4220
2018-03-16T12:21:59.961Z,3928
2018-03-16T12:22:44.695Z,4024
2018-03-16T12:23:29.408Z,4376
2018-03-16T12:24:14.120Z,4296
2018-03-16T12:24:58.885Z,4264
2018-03-16T12:25:43.628Z,4296
2018-03-16T12:26:28.370Z,4460
2018-03-16T12:27:13.127Z,4672
2018-03-16T12:27:57.840Z,4684
2018-03-16T12:28:49.814Z,4588
2018-03-16T12:29:27.262Z,4940
2018-03-16T12:30:12.010Z,4916
2018-03-16T12:30:56.781Z,4560
2018-03-16T12:31:41.426Z,4444
2018-03-16T12:32:26.135Z,4988
2018-03-16T12:33:10.900Z,5000
2018-03-16T12:33:55.607Z,4660
2018-03-16T12:34:40.350Z,4952
2018-03-16T12:35:25.100Z,4612
2018-03-16T12:36:09.772Z,5200
2018-03-16T12:36:54.487Z,4776
2018-03-16T12:37:39.279Z,5140
2018-03-16T12:38:23.992Z,4796
2018-03-16T12:39:08.702Z,4500
2018-03-16T12:39:53.412Z,4668
2018-03-16T12:40:38.128Z,5088
2018-03-16T12:41:22.868Z,5220
2018-03-16T12:42:07.585Z,4776
2018-03-16T12:42:52.295Z,5052
2018-03-16T12:43:37.035Z,5564
2018-03-16T12:44:21.749Z,5152
2018-03-16T12:45:06.462Z,5580
2018-03-16T12:45:51.201Z,5032
2018-03-16T12:46:36.053Z,4960
2018-03-16T12:47:20.793Z,5644
2018-03-16T12:48:05.476Z,5584
2018-03-16T12:48:50.242Z,5352
2018-03-16T12:49:34.952Z,4952
2018-03-16T12:50:19.669Z,5252
2018-03-16T12:51:04.404Z,5064
2018-03-16T12:51:49.122Z,5064
2018-03-16T12:52:33.833Z,5620
2018-03-16T12:53:18.544Z,5780
2018-03-16T12:54:03.286Z,5852
2018-03-16T12:54:48.039Z,5444
2018-03-16T12:55:32.775Z,5084
2018-03-16T12:56:17.480Z,4944
2018-03-16T12:57:02.241Z,5296
2018-03-16T12:57:46.959Z,4960
2018-03-16T12:58:31.699Z,4956
2018-03-16T12:59:16.413Z,4824
2018-03-16T13:00:01.198Z,4812
2018-03-16T13:00:45.908Z,5164
2018-03-16T13:01:30.624Z,4928
2018-03-16T13:02:15.411Z,4756
2018-03-16T13:03:00.121Z,4472
2018-03-16T13:03:44.846Z,4824
2018-03-16T13:04:29.644Z,4496
2018-03-16T13:05:14.389Z,3932
2018-03-16T13:05:59.209Z,4208
2018-03-16T13:06:44.104Z,4548
2018-03-16T13:07:28.834Z,4740
2018-03-16T13:08:13.529Z,4772
2018-03-16T13:08:58.240Z,4388
2018-03-16T13:09:43.005Z,4112
2018-03-16T13:10:27.743Z,4024
2018-03-16T13:11:12.460Z,3824
2018-03-16T13:11:57.203Z,3860
2018-03-16T13:12:41.948Z,3924
2018-03-16T13:13:26.687Z,3936
2018-03-16T13:14:11.412Z,3660
2018-03-16T13:14:56.141Z,3692
2018-03-16T13:15:40.864Z,3972
2018-03-16T13:16:25.567Z,4204
2018-03-16T13:17:10.354Z,4136
2018-03-16T13:17:55.037Z,4240
2018-03-16T13:18:39.750Z,4120
2018-03-16T13:19:24.517Z,4296
2018-03-16T13:20:09.222Z,4368
2018-03-16T13:20:53.929Z,4304
2018-03-16T13:21:38.643Z,3904
2018-03-16T13:22:23.407Z,4456
2018-03-16T13:23:08.127Z,4396
2018-03-16T13:23:52.860Z,4364
2018-03-16T13:24:37.571Z,4100
2018-03-16T13:25:22.334Z,4592
2018-03-16T13:26:07.048Z,4388
2018-03-16T13:26:51.838Z,4280
2018-03-16T13:27:36.551Z,4244
2018-03-16T13:28:21.261Z,4112
2018-03-16T13:29:05.970Z,4296
2018-03-16T13:29:50.688Z,4488
2018-03-16T13:30:35.426Z,4764
2018-03-16T13:31:20.135Z,4364
2018-03-16T13:32:04.903Z,4560
2018-03-16T13:32:49.842Z,4640
2018-03-16T13:33:34.555Z,4808
2018-03-16T13:34:19.272Z,4724
2018-03-16T13:35:04.001Z,4772
2018-03-16T13:35:48.718Z,4552
2018-03-16T13:36:33.426Z,4988
2018-03-16T13:37:18.172Z,4952
2018-03-16T13:38:02.959Z,5144
2018-03-16T13:38:47.673Z,4952
2018-03-16T13:39:32.415Z,4184
2018-03-16T13:40:17.131Z,4336
2018-03-16T13:41:01.893Z,4684
2018-03-16T13:41:46.632Z,4564
2018-03-16T13:42:31.348Z,4104
2018-03-16T13:43:16.064Z,4064
2018-03-16T13:44:00.811Z,3880
2018-03-16T13:44:45.534Z,4184
2018-03-16T13:45:30.245Z,4168
2018-03-16T13:46:15.034Z,4108
2018-03-16T13:46:59.705Z,4184
2018-03-16T13:47:44.439Z,4096
2018-03-16T13:48:29.165Z,3912
2018-03-16T13:49:13.919Z,3888
2018-03-16T13:49:58.649Z,4444
2018-03-16T13:50:43.347Z,4408
2018-03-16T13:51:28.111Z,4580
2018-03-16T13:52:12.851Z,4208
2018-03-16T13:52:57.560Z,4404
2018-03-16T13:53:42.274Z,4408
2018-03-16T13:54:26.987Z,4964
2018-03-16T13:55:11.728Z,5408
2018-03-16T13:55:56.442Z,4936
2018-03-16T13:56:41.203Z,4580
2018-03-16T13:57:25.944Z,4492
2018-03-16T13:58:10.686Z,4244
2018-03-16T13:58:55.397Z,5008
2018-03-16T13:59:40.138Z,5160
2018-03-16T14:00:24.902Z,5328
2018-03-16T14:01:09.648Z,5156
2018-03-16T14:01:54.392Z,5488
2018-03-16T14:02:39.104Z,5336
2018-03-16T14:03:23.842Z,5164
2018-03-16T14:04:08.553Z,5340
2018-03-16T14:04:53.267Z,5504
2018-03-16T14:05:38.062Z,5408
2018-03-16T14:06:22.813Z,5252
2018-03-16T14:07:07.535Z,5252
2018-03-16T14:07:52.247Z,5320
2018-03-16T14:08:36.983Z,5384
2018-03-16T14:09:21.702Z,5192
2018-03-16T14:10:06.441Z,5184
2018-03-16T14:10:51.187Z,5020
2018-03-16T14:11:35.897Z,4744
2018-03-16T14:12:20.640Z,5044
2018-03-16T14:13:05.378Z,4896
2018-03-16T14:13:50.089Z,4860
2018-03-16T14:14:34.853Z,4760
2018-03-16T14:15:19.624Z,4680
2018-03-16T14:16:04.339Z,4740
2018-03-16T14:16:49.058Z,5012
2018-03-16T14:17:33.796Z,4956
2018-03-16T14:18:18.511Z,5064
2018-03-16T14:19:03.229Z,5188
2018-03-16T14:19:47.970Z,5252
2018-03-16T14:20:32.692Z,5228
2018-03-16T14:21:17.420Z,5132
2018-03-16T14:22:02.158Z,5224
2018-03-16T14:22:46.871Z,5184
2018-03-16T14:23:31.579Z,5088
2018-03-16T14:24:16.292Z,4800
2018-03-16T14:25:01.007Z,4724
2018-03-16T14:25:45.747Z,4560
2018-03-16T14:26:30.458Z,4196
2018-03-16T14:27:15.252Z,4300
2018-03-16T14:27:59.983Z,4456
2018-03-16T14:28:44.694Z,4416
2018-03-16T14:29:29.425Z,4220
2018-03-16T14:30:14.188Z,4228
2018-03-16T14:30:58.904Z,4412
2018-03-16T14:31:43.643Z,4300
2018-03-16T14:32:28.355Z,4168
2018-03-16T14:33:13.068Z,4076
2018-03-16T14:33:57.775Z,4080
2018-03-16T14:34:42.522Z,4232
2018-03-16T14:35:27.229Z,4188
2018-03-16T14:36:11.975Z,4012
2018-03-16T14:36:56.689Z,3932
2018-03-16T14:37:41.424Z,4164
2018-03-16T14:38:26.137Z,4100
2018-03-16T14:39:10.924Z,3980
2018-03-16T14:39:55.661Z,3776
2018-03-16T14:40:40.360Z,3860
2018-03-16T14:41:25.102Z,3944
2018-03-16T14:42:09.813Z,3780
2018-03-16T14:42:54.519Z,3532
2018-03-16T14:43:39.235Z,3720
2018-03-16T14:44:23.975Z,3916
2018-03-16T14:45:08.688Z,3668
2018-03-16T14:45:53.402Z,3824
2018-03-16T14:46:38.142Z,3908
2018-03-16T14:47:22.904Z,4292
2018-03-16T14:48:07.616Z,4280
2018-03-16T14:48:52.328Z,4180
2018-03-16T14:49:37.164Z,4188
2018-03-16T14:50:21.919Z,3972
2018-03-16T14:51:06.647Z,3932
2018-03-16T14:51:51.355Z,3832
2018-03-16T14:52:36.140Z,3832
2018-03-16T14:53:20.855Z,3848
2018-03-16T14:54:05.599Z,3628
2018-03-16T14:54:50.309Z,4072
2018-03-16T14:55:35.017Z,3820
2018-03-16T14:56:19.799Z,3692
2018-03-16T14:57:04.508Z,3748
2018-03-16T14:57:49.223Z,3752
2018-03-16T14:58:34.003Z,3572
2018-03-16T14:59:18.838Z,3664
2018-03-16T15:00:03.605Z,3908
2018-03-16T15:00:48.327Z,4168
2018-03-16T15:01:33.074Z,4208
2018-03-16T15:02:17.781Z,4364
2018-03-16T15:03:02.499Z,4444
2018-03-16T15:03:47.233Z,4540
2018-03-16T15:04:31.981Z,4420
2018-03-16T15:05:16.725Z,4444
2018-03-16T15:06:01.464Z,4380
2018-03-16T15:06:46.237Z,4140
2018-03-16T15:07:30.982Z,4440
2018-03-16T15:08:15.720Z,4728
2018-03-16T15:09:00.493Z,4712
2018-03-16T15:09:45.220Z,4444
2018-03-16T15:10:29.960Z,4388
2018-03-16T15:11:14.703Z,4216
2018-03-16T15:11:59.413Z,4352
2018-03-16T15:12:44.128Z,4484
2018-03-16T15:13:28.843Z,4656
2018-03-16T15:14:13.582Z,4480
2018-03-16T15:14:58.382Z,4740
2018-03-16T15:15:43.140Z,4640
2018-03-16T15:16:27.828Z,4780
2018-03-16T15:17:12.549Z,4716
2018-03-16T15:17:57.267Z,4200
2018-03-16T15:18:42.002Z,4280
2018-03-16T15:19:26.712Z,4152
2018-03-16T15:20:11.504Z,4160
2018-03-16T15:20:56.320Z,4048
2018-03-16T15:21:41.113Z,3820
2018-03-16T15:22:25.749Z,4044
2018-03-16T15:23:10.541Z,4044
2018-03-16T15:23:55.400Z,4216
2018-03-16T15:24:40.104Z,4164
2018-03-16T15:25:24.849Z,4168
2018-03-16T15:26:09.559Z,4456
2018-03-16T15:26:54.301Z,4132
2018-03-16T15:27:38.995Z,3908
2018-03-16T15:28:23.774Z,4000
2018-03-16T15:29:08.479Z,3700
2018-03-16T15:29:53.188Z,3708
2018-03-16T15:30:37.915Z,3572
2018-03-16T15:31:22.622Z,3404
2018-03-16T15:32:07.333Z,3348
2018-03-16T15:32:52.057Z,3236
2018-03-16T15:33:36.815Z,3108
2018-03-16T15:34:21.509Z,2856
2018-03-16T15:35:06.211Z,2940
2018-03-16T15:35:50.923Z,2732
2018-03-16T15:36:35.630Z,2632
2018-03-16T15:37:20.410Z,2512
2018-03-16T15:38:05.163Z,2424
2018-03-16T15:38:49.868Z,2444
2018-03-16T15:39:34.598Z,2436
2018-03-16T15:40:19.304Z,2268
2018-03-16T15:41:04.006Z,2344
2018-03-16T15:41:48.722Z,2268
2018-03-16T15:42:33.443Z,2480
2018-03-16T15:43:18.120Z,2364
2018-03-16T15:44:02.846Z,2240
2018-03-16T15:44:47.555Z,2320
2018-03-16T15:45:32.305Z,2144
2018-03-16T15:46:17.008Z,2052
2018-03-16T15:47:01.715Z,2020
2018-03-16T15:47:46.423Z,2004
2018-03-16T15:48:31.129Z,1972
2018-03-16T15:49:15.883Z,1884
2018-03-16T15:50:00.614Z,1932
2018-03-16T15:50:45.344Z,1912
2018-03-16T15:51:30.021Z,1808
2018-03-16T15:52:14.751Z,1708
2018-03-16T15:52:59.479Z,1536
2018-03-16T15:53:44.204Z,1400
2018-03-16T15:54:28.956Z,1308
2018-03-16T15:55:13.662Z,1272
2018-03-16T15:55:58.391Z,1188
2018-03-16T15:56:43.076Z,1156
2018-03-16T15:57:27.781Z,1128
2018-03-16T15:58:12.493Z,1008
2018-03-16T15:58:57.275Z,1016
2018-03-16T15:59:41.974Z,980
2018-03-16T16:00:26.680Z,1008
2018-03-16T16:01:11.407Z,1024
2018-03-16T16:01:56.114Z,976
2018-03-16T16:02:40.815Z,1032
2018-03-16T16:03:25.523Z,1028
2018-03-16T16:04:10.273Z,1040
2018-03-16T16:04:54.980Z,1056
2018-03-16T16:05:39.738Z,964
2018-03-16T16:06:24.457Z,992
2018-03-16T16:07:09.165Z,988
2018-03-16T16:07:53.872Z,980
2018-03-16T16:08:38.572Z,876
2018-03-16T16:09:23.284Z,948
2018-03-16T16:10:08.014Z,900
2018-03-16T16:10:52.717Z,868
2018-03-16T16:11:38.105Z,848
2018-03-16T16:12:22.810Z,848
2018-03-16T16:13:07.537Z,800
2018-03-16T16:13:52.242Z,768
2018-03-16T16:14:36.994Z,796
2018-03-16T16:15:21.697Z,788
2018-03-16T16:16:06.405Z,752
2018-03-16T16:16:51.131Z,744
2018-03-16T16:17:35.835Z,720
2018-03-16T16:18:20.541Z,652
2018-03-16T16:19:05.274Z,632
2018-03-16T16:19:49.996Z,576
2018-03-16T16:20:34.706Z,640
2018-03-16T16:21:19.407Z,676
2018-03-16T16:22:04.144Z,644
2018-03-16T16:22:48.849Z,548
2018-03-16T16:23:33.550Z,568
2018-03-16T16:24:18.255Z,532
2018-03-16T16:25:03.013Z,516
2018-03-16T16:25:47.740Z,500
2018-03-16T16:26:32.443Z,476
2018-03-16T16:27:17.200Z,504
2018-03-16T16:28:01.906Z,460
2018-03-16T16:28:46.635Z,476
2018-03-16T16:29:31.343Z,436
2018-03-16T16:30:16.114Z,432
2018-03-16T16:31:00.883Z,424
2018-03-16T16:31:45.608Z,428
2018-03-16T16:32:30.381Z,420
2018-03-16T16:33:15.091Z,416
2018-03-16T16:33:59.788Z,396
2018-03-16T16:34:44.505Z,392
2018-03-16T16:35:29.222Z,352
2018-03-16T16:36:13.936Z,348
2018-03-16T16:36:58.638Z,356
2018-03-16T16:37:43.361Z,332
2018-03-16T16:38:28.070Z,276
2018-03-16T16:39:12.771Z,268
2018-03-16T16:39:57.478Z,244
2018-03-16T16:40:42.181Z,224
2018-03-16T16:41:26.890Z,208
2018-03-16T16:42:11.618Z,196
2018-03-16T16:42:56.368Z,196
2018-03-16T16:43:41.120Z,180
2018-03-16T16:44:25.851Z,176
2018-03-16T16:45:10.556Z,172
2018-03-16T16:45:55.278Z,180
2018-03-16T16:46:40.002Z,172
2018-03-16T16:47:24.717Z,164
2018-03-16T16:48:09.423Z,172
2018-03-16T16:48:54.352Z,176
2018-03-16T16:49:39.075Z,156
2018-03-16T16:50:23.778Z,148
2018-03-16T16:51:08.486Z,136
2018-03-16T16:51:53.212Z,136
2018-03-16T16:52:37.961Z,132
2018-03-16T16:53:22.665Z,128
2018-03-16T16:54:07.370Z,116
2018-03-16T16:54:52.161Z,108
2018-03-16T16:55:36.776Z,104
2018-03-16T16:56:21.480Z,100
2018-03-16T16:57:06.179Z,100
2018-03-16T16:57:50.918Z,88
2018-03-16T16:58:35.694Z,80
2018-03-16T16:59:20.412Z,80
2018-03-16T17:00:05.119Z,80
2018-03-16T17:00:49.844Z,80
2018-03-16T17:01:34.666Z,72
2018-03-16T17:02:19.382Z,76
2018-03-16T17:03:04.106Z,68
2018-03-16T17:03:48.887Z,60
2018-03-16T17:04:33.589Z,60
2018-03-16T17:05:18.310Z,56
2018-03-16T17:06:03.002Z,52
2018-03-16T17:06:47.720Z,48
2018-03-16T17:07:32.422Z,48
2018-03-16T17:08:17.127Z,44
2018-03-16T17:09:01.832Z,40
2018-03-16T17:09:46.525Z,40
2018-03-16T17:10:31.288Z,36
2018-03-16T17:11:15.988Z,36
2018-03-16T17:12:00.694Z,32
2018-03-16T17:12:45.397Z,28
2018-03-16T17:13:30.175Z,28
2018-03-16T17:14:14.900Z,24
2018-03-16T17:14:59.599Z,24
2018-03-16T17:15:44.300Z,24
2018-03-16T17:16:29.055Z,20
2018-03-16T17:17:13.803Z,16
2018-03-16T17:17:58.508Z,16
2018-03-16T17:18:43.281Z,16
2018-03-16T17:19:28.029Z,12
2018-03-16T17:20:12.731Z,12
2018-03-16T17:20:57.455Z,8
2018-03-16T17:21:42.206Z,8
2018-03-16T17:22:26.929Z,8
2018-03-16T17:23:11.641Z,8
2018-03-16T17:23:56.402Z,4
2018-03-16T17:24:41.107Z,8
2018-03-16T17:25:25.810Z,4
2018-03-16T17:26:10.531Z,4
2018-03-16T17:26:55.234Z,0
2018-03-16T17:27:39.954Z,4
2018-03-16T17:28:24.654Z,4
2018-03-16T17:29:09.405Z,4
2018-03-16T17:29:54.152Z,4
2018-03-16T17:30:38.860Z,0
2018-03-16T17:31:23.583Z,0
2018-03-16T17:32:08.290Z,0
2018-03-16T17:32:53.059Z,0
2018-03-16T17:33:37.808Z,0
2018-03-16T17:34:22.508Z,0
2018-03-16T17:35:07.261Z,0
2018-03-16T17:35:51.979Z,0
2018-03-16T17:36:36.681Z,0
2018-03-16T17:37:21.431Z,0
2018-03-16T17:38:06.185Z,0
2018-03-16T17:38:50.832Z,0
2018-03-16T17:39:35.532Z,0
2018-03-16T17:40:20.236Z,0
2018-03-16T17:41:04.986Z,0
2018-03-16T17:41:49.690Z,0
2018-03-16T17:42:34.427Z,0
2018-03-16T17:43:19.152Z,0
2018-03-16T17:44:03.836Z,0
2018-03-16T17:44:48.540Z,0
2018-03-16T17:45:33.243Z,0
2018-03-16T17:46:17.943Z,0
2018-03-16T17:47:02.648Z,0
2018-03-16T17:47:47.421Z,0
2018-03-16T17:48:32.119Z,0
2018-03-16T17:49:16.822Z,0
2018-03-16T17:50:01.548Z,0
2018-03-16T17:50:46.248Z,0
2018-03-16T17:51:30.997Z,0
2018-03-16T17:52:15.746Z,0
2018-03-16T17:53:00.450Z,0
2018-03-16T17:53:45.174Z,0
2018-03-16T17:54:29.877Z,0
2018-03-16T17:55:14.592Z,0
2018-03-16T17:55:59.330Z,0
2018-03-16T17:56:44.054Z,0
2018-03-16T17:57:28.756Z,0
2018-03-16T17:58:13.456Z,0
2018-03-16T17:58:58.226Z,0
2018-03-16T17:59:42.943Z,0
2018-03-16T18:00:27.645Z,0
2018-03-16T18:01:12.349Z,0
2018-03-16T18:01:57.075Z,0
2018-03-16T18:02:41.780Z,0
2018-03-16T18:03:26.505Z,0
2018-03-16T18:04:11.431Z,0
2018-03-16T18:04:56.156Z,0
2018-03-16T18:05:40.860Z,0
2018-03-16T18:06:25.585Z,0
2018-03-16T18:07:10.286Z,0
2018-03-16T18:07:54.988Z,0
2018-03-16T18:08:39.712Z,0
2018-03-16T18:38:29.985Z,0
